sensor_id;sensor_type;location;lat;lon;timestamp;P1;durP1;ratioP1;P2;durP2;ratioP2
31043;SDS011;17710;52.520;13.352;2023-02-13T00:01:40;29.70;;;12.93;;
31043;SDS011;17710;52.520;13.352;2023-02-13T00:04:07;28.60;;;14.20;;
31043;SDS011;17710;52.520;13.352;2023-02-13T00:06:34;27.08;;;12.68;;
31043;SDS011;17710;52.520;13.352;2023-02-13T00:09:00;24.30;;;11.95;;
31043;SDS011;17710;52.520;13.352;2023-02-13T00:11:27;24.55;;;10.68;;
31043;SDS011;17710;52.520;13.352;2023-02-13T00:13:54;22.88;;;10.80;;
31043;SDS011;17710;52.520;13.352;2023-02-13T00:16:20;27.33;;;10.77;;
31043;SDS011;17710;52.520;13.352;2023-02-13T00:18:46;20.67;;;10.30;;
31043;SDS011;17710;52.520;13.352;2023-02-13T00:21:14;20.55;;;10.68;;
31043;SDS011;17710;52.520;13.352;2023-02-13T00:23:41;20.35;;;10.07;;
31043;SDS011;17710;52.520;13.352;2023-02-13T00:26:07;18.77;;;8.82;;
31043;SDS011;17710;52.520;13.352;2023-02-13T00:28:35;20.20;;;9.68;;
31043;SDS011;17710;52.520;13.352;2023-02-13T00:31:02;17.08;;;8.88;;
31043;SDS011;17710;52.520;13.352;2023-02-13T00:33:30;16.65;;;8.80;;
31043;SDS011;17710;52.520;13.352;2023-02-13T00:36:01;15.48;;;7.57;;
31043;SDS011;17710;52.520;13.352;2023-02-13T00:38:29;17.20;;;8.30;;
31043;SDS011;17710;52.520;13.352;2023-02-13T00:40:56;13.82;;;6.93;;
31043;SDS011;17710;52.520;13.352;2023-02-13T00:43:23;12.90;;;7.03;;
31043;SDS011;17710;52.520;13.352;2023-02-13T00:45:49;11.40;;;6.68;;
31043;SDS011;17710;52.520;13.352;2023-02-13T00:48:16;10.48;;;5.10;;
31043;SDS011;17710;52.520;13.352;2023-02-13T00:50:42;7.63;;;4.30;;
31043;SDS011;17710;52.520;13.352;2023-02-13T00:53:10;8.30;;;4.38;;
31043;SDS011;17710;52.520;13.352;2023-02-13T00:55:37;9.38;;;3.92;;
31043;SDS011;17710;52.520;13.352;2023-02-13T00:58:04;11.43;;;4.07;;
31043;SDS011;17710;52.520;13.352;2023-02-13T01:00:30;8.73;;;4.18;;
31043;SDS011;17710;52.520;13.352;2023-02-13T01:02:57;7.03;;;3.60;;
31043;SDS011;17710;52.520;13.352;2023-02-13T01:05:23;8.80;;;3.47;;
31043;SDS011;17710;52.520;13.352;2023-02-13T01:07:52;8.75;;;3.53;;
31043;SDS011;17710;52.520;13.352;2023-02-13T01:10:18;7.40;;;3.10;;
31043;SDS011;17710;52.520;13.352;2023-02-13T01:12:46;4.20;;;2.53;;
31043;SDS011;17710;52.520;13.352;2023-02-13T01:15:12;4.40;;;2.50;;
31043;SDS011;17710;52.520;13.352;2023-02-13T01:17:39;6.53;;;2.90;;
31043;SDS011;17710;52.520;13.352;2023-02-13T01:20:05;6.05;;;2.70;;
31043;SDS011;17710;52.520;13.352;2023-02-13T01:22:33;5.13;;;2.60;;
31043;SDS011;17710;52.520;13.352;2023-02-13T01:24:59;6.38;;;2.50;;
31043;SDS011;17710;52.520;13.352;2023-02-13T01:27:26;4.30;;;2.42;;
31043;SDS011;17710;52.520;13.352;2023-02-13T01:29:54;5.18;;;2.08;;
31043;SDS011;17710;52.520;13.352;2023-02-13T01:32:21;8.55;;;2.53;;
31043;SDS011;17710;52.520;13.352;2023-02-13T01:34:47;7.70;;;3.15;;
31043;SDS011;17710;52.520;13.352;2023-02-13T01:37:14;4.90;;;2.63;;
31043;SDS011;17710;52.520;13.352;2023-02-13T01:39:40;3.83;;;2.40;;
31043;SDS011;17710;52.520;13.352;2023-02-13T01:42:09;7.25;;;2.47;;
31043;SDS011;17710;52.520;13.352;2023-02-13T01:44:44;3.83;;;2.20;;
31043;SDS011;17710;52.520;13.352;2023-02-13T01:47:15;3.83;;;2.38;;
31043;SDS011;17710;52.520;13.352;2023-02-13T01:49:47;6.63;;;2.92;;
31043;SDS011;17710;52.520;13.352;2023-02-13T01:52:16;3.75;;;2.38;;
31043;SDS011;17710;52.520;13.352;2023-02-13T01:54:43;6.10;;;2.90;;
31043;SDS011;17710;52.520;13.352;2023-02-13T01:57:12;4.03;;;2.88;;
31043;SDS011;17710;52.520;13.352;2023-02-13T01:59:45;4.15;;;2.72;;
31043;SDS011;17710;52.520;13.352;2023-02-13T02:02:15;6.50;;;3.15;;
31043;SDS011;17710;52.520;13.352;2023-02-13T02:04:43;4.53;;;2.97;;
31043;SDS011;17710;52.520;13.352;2023-02-13T02:07:13;3.72;;;2.88;;
31043;SDS011;17710;52.520;13.352;2023-02-13T02:09:45;4.60;;;3.20;;
31043;SDS011;17710;52.520;13.352;2023-02-13T02:12:13;5.25;;;3.40;;
31043;SDS011;17710;52.520;13.352;2023-02-13T02:14:48;5.88;;;3.50;;
31043;SDS011;17710;52.520;13.352;2023-02-13T02:17:19;6.03;;;3.28;;
31043;SDS011;17710;52.520;13.352;2023-02-13T02:19:48;4.32;;;3.03;;
31043;SDS011;17710;52.520;13.352;2023-02-13T02:22:38;6.85;;;3.15;;
31043;SDS011;17710;52.520;13.352;2023-02-13T02:25:30;6.95;;;3.30;;
31043;SDS011;17710;52.520;13.352;2023-02-13T02:28:19;7.32;;;3.63;;
31043;SDS011;17710;52.520;13.352;2023-02-13T02:31:06;6.40;;;3.40;;
31043;SDS011;17710;52.520;13.352;2023-02-13T02:33:57;8.27;;;4.07;;
31043;SDS011;17710;52.520;13.352;2023-02-13T02:36:38;6.72;;;3.75;;
31043;SDS011;17710;52.520;13.352;2023-02-13T02:39:19;6.03;;;4.00;;
31043;SDS011;17710;52.520;13.352;2023-02-13T02:41:57;6.68;;;4.43;;
31043;SDS011;17710;52.520;13.352;2023-02-13T02:44:35;7.05;;;4.05;;
31043;SDS011;17710;52.520;13.352;2023-02-13T02:47:09;7.90;;;3.92;;
31043;SDS011;17710;52.520;13.352;2023-02-13T02:50:07;8.15;;;4.93;;
31043;SDS011;17710;52.520;13.352;2023-02-13T02:52:44;7.55;;;4.35;;
31043;SDS011;17710;52.520;13.352;2023-02-13T02:55:23;11.93;;;5.97;;
31043;SDS011;17710;52.520;13.352;2023-02-13T02:57:59;8.43;;;5.95;;
31043;SDS011;17710;52.520;13.352;2023-02-13T03:00:48;9.80;;;6.15;;
31043;SDS011;17710;52.520;13.352;2023-02-13T03:03:34;11.98;;;5.97;;
31043;SDS011;17710;52.520;13.352;2023-02-13T03:06:21;11.30;;;6.13;;
31043;SDS011;17710;52.520;13.352;2023-02-13T03:08:53;10.55;;;6.75;;
31043;SDS011;17710;52.520;13.352;2023-02-13T03:11:41;9.55;;;6.22;;
31043;SDS011;17710;52.520;13.352;2023-02-13T03:14:28;12.65;;;6.65;;
31043;SDS011;17710;52.520;13.352;2023-02-13T03:16:55;12.75;;;7.25;;
31043;SDS011;17710;52.520;13.352;2023-02-13T03:19:42;12.27;;;7.70;;
31043;SDS011;17710;52.520;13.352;2023-02-13T03:22:39;12.50;;;7.53;;
31043;SDS011;17710;52.520;13.352;2023-02-13T03:25:11;13.80;;;7.63;;
31043;SDS011;17710;52.520;13.352;2023-02-13T03:27:54;14.20;;;8.07;;
31043;SDS011;17710;52.520;13.352;2023-02-13T03:30:46;12.52;;;7.53;;
31043;SDS011;17710;52.520;13.352;2023-02-13T03:33:26;14.90;;;7.72;;
31043;SDS011;17710;52.520;13.352;2023-02-13T03:36:06;14.85;;;8.68;;
31043;SDS011;17710;52.520;13.352;2023-02-13T03:38:59;15.13;;;7.80;;
31043;SDS011;17710;52.520;13.352;2023-02-13T03:41:32;16.58;;;7.68;;
31043;SDS011;17710;52.520;13.352;2023-02-13T03:44:10;14.32;;;7.68;;
31043;SDS011;17710;52.520;13.352;2023-02-13T03:46:41;11.48;;;7.25;;
31043;SDS011;17710;52.520;13.352;2023-02-13T03:49:15;12.23;;;7.30;;
31043;SDS011;17710;52.520;13.352;2023-02-13T03:52:04;12.23;;;7.30;;
31043;SDS011;17710;52.520;13.352;2023-02-13T03:54:37;15.40;;;7.72;;
31043;SDS011;17710;52.520;13.352;2023-02-13T03:57:24;16.10;;;7.90;;
31043;SDS011;17710;52.520;13.352;2023-02-13T04:00:12;11.27;;;7.47;;
31043;SDS011;17710;52.520;13.352;2023-02-13T04:02:41;14.60;;;7.85;;
31043;SDS011;17710;52.520;13.352;2023-02-13T04:05:16;12.90;;;7.68;;
31043;SDS011;17710;52.520;13.352;2023-02-13T04:07:46;13.82;;;8.07;;
31043;SDS011;17710;52.520;13.352;2023-02-13T04:10:14;13.10;;;8.23;;
31043;SDS011;17710;52.520;13.352;2023-02-13T04:12:42;13.68;;;7.78;;
31043;SDS011;17710;52.520;13.352;2023-02-13T04:15:18;10.97;;;7.23;;
31043;SDS011;17710;52.520;13.352;2023-02-13T04:17:51;13.95;;;7.97;;
31043;SDS011;17710;52.520;13.352;2023-02-13T04:20:21;16.25;;;9.00;;
31043;SDS011;17710;52.520;13.352;2023-02-13T04:22:51;15.55;;;9.45;;
31043;SDS011;17710;52.520;13.352;2023-02-13T04:25:19;16.23;;;8.98;;
31043;SDS011;17710;52.520;13.352;2023-02-13T04:27:46;15.00;;;8.88;;
31043;SDS011;17710;52.520;13.352;2023-02-13T04:32:39;15.02;;;9.63;;
31043;SDS011;17710;52.520;13.352;2023-02-13T04:35:05;15.27;;;9.55;;
31043;SDS011;17710;52.520;13.352;2023-02-13T04:37:33;16.13;;;9.32;;
31043;SDS011;17710;52.520;13.352;2023-02-13T04:39:59;15.57;;;9.75;;
31043;SDS011;17710;52.520;13.352;2023-02-13T04:42:27;15.60;;;8.65;;
31043;SDS011;17710;52.520;13.352;2023-02-13T04:44:54;15.20;;;8.60;;
31043;SDS011;17710;52.520;13.352;2023-02-13T04:47:20;14.75;;;8.60;;
31043;SDS011;17710;52.520;13.352;2023-02-13T04:49:46;15.32;;;9.23;;
31043;SDS011;17710;52.520;13.352;2023-02-13T04:52:13;14.35;;;8.18;;
31043;SDS011;17710;52.520;13.352;2023-02-13T04:54:40;13.02;;;7.75;;
31043;SDS011;17710;52.520;13.352;2023-02-13T04:57:06;12.38;;;8.15;;
31043;SDS011;17710;52.520;13.352;2023-02-13T04:59:34;13.30;;;7.80;;
31043;SDS011;17710;52.520;13.352;2023-02-13T05:02:01;11.38;;;7.40;;
31043;SDS011;17710;52.520;13.352;2023-02-13T05:04:27;17.95;;;8.20;;
31043;SDS011;17710;52.520;13.352;2023-02-13T05:06:53;12.75;;;7.30;;
31043;SDS011;17710;52.520;13.352;2023-02-13T05:09:20;14.80;;;8.57;;
31043;SDS011;17710;52.520;13.352;2023-02-13T05:11:47;12.18;;;7.68;;
31043;SDS011;17710;52.520;13.352;2023-02-13T05:14:16;16.58;;;7.97;;
31043;SDS011;17710;52.520;13.352;2023-02-13T05:16:44;12.20;;;7.65;;
31043;SDS011;17710;52.520;13.352;2023-02-13T05:19:10;15.10;;;8.40;;
31043;SDS011;17710;52.520;13.352;2023-02-13T05:21:37;12.40;;;7.90;;
31043;SDS011;17710;52.520;13.352;2023-02-13T05:24:21;13.07;;;7.45;;
31043;SDS011;17710;52.520;13.352;2023-02-13T05:26:47;13.38;;;7.25;;
31043;SDS011;17710;52.520;13.352;2023-02-13T05:29:13;14.35;;;7.00;;
31043;SDS011;17710;52.520;13.352;2023-02-13T05:31:48;13.30;;;7.60;;
31043;SDS011;17710;52.520;13.352;2023-02-13T05:34:16;14.05;;;7.10;;
31043;SDS011;17710;52.520;13.352;2023-02-13T05:36:42;13.80;;;7.22;;
31043;SDS011;17710;52.520;13.352;2023-02-13T05:39:09;13.23;;;6.78;;
31043;SDS011;17710;52.520;13.352;2023-02-13T05:41:35;9.95;;;6.38;;
31043;SDS011;17710;52.520;13.352;2023-02-13T05:44:02;13.15;;;7.18;;
31043;SDS011;17710;52.520;13.352;2023-02-13T05:46:29;10.63;;;6.82;;
31043;SDS011;17710;52.520;13.352;2023-02-13T05:48:56;11.73;;;6.82;;
31043;SDS011;17710;52.520;13.352;2023-02-13T05:51:23;12.20;;;6.05;;
31043;SDS011;17710;52.520;13.352;2023-02-13T05:53:49;10.05;;;6.38;;
31043;SDS011;17710;52.520;13.352;2023-02-13T05:56:16;11.95;;;6.57;;
31043;SDS011;17710;52.520;13.352;2023-02-13T05:58:42;11.38;;;6.80;;
31043;SDS011;17710;52.520;13.352;2023-02-13T06:01:10;10.10;;;5.85;;
31043;SDS011;17710;52.520;13.352;2023-02-13T06:03:36;12.27;;;6.78;;
31043;SDS011;17710;52.520;13.352;2023-02-13T06:06:05;14.60;;;6.65;;
31043;SDS011;17710;52.520;13.352;2023-02-13T06:08:32;10.55;;;6.10;;
31043;SDS011;17710;52.520;13.352;2023-02-13T06:10:58;8.70;;;5.65;;
31043;SDS011;17710;52.520;13.352;2023-02-13T06:13:25;9.48;;;5.70;;
31043;SDS011;17710;52.520;13.352;2023-02-13T06:15:51;8.50;;;5.88;;
31043;SDS011;17710;52.520;13.352;2023-02-13T06:18:18;8.18;;;5.85;;
31043;SDS011;17710;52.520;13.352;2023-02-13T06:20:44;11.85;;;6.20;;
31043;SDS011;17710;52.520;13.352;2023-02-13T06:23:12;8.63;;;5.43;;
31043;SDS011;17710;52.520;13.352;2023-02-13T06:25:38;10.25;;;5.70;;
31043;SDS011;17710;52.520;13.352;2023-02-13T06:28:05;9.73;;;5.22;;
31043;SDS011;17710;52.520;13.352;2023-02-13T06:30:32;9.13;;;5.63;;
31043;SDS011;17710;52.520;13.352;2023-02-13T06:32:58;7.63;;;5.22;;
31043;SDS011;17710;52.520;13.352;2023-02-13T06:35:25;8.07;;;4.95;;
31043;SDS011;17710;52.520;13.352;2023-02-13T06:37:52;7.07;;;5.15;;
31043;SDS011;17710;52.520;13.352;2023-02-13T06:40:26;11.07;;;4.82;;
31043;SDS011;17710;52.520;13.352;2023-02-13T06:42:52;7.43;;;4.57;;
31043;SDS011;17710;52.520;13.352;2023-02-13T06:45:19;7.57;;;5.13;;
31043;SDS011;17710;52.520;13.352;2023-02-13T06:47:46;8.93;;;6.03;;
31043;SDS011;17710;52.520;13.352;2023-02-13T06:50:14;6.53;;;5.07;;
31043;SDS011;17710;52.520;13.352;2023-02-13T06:52:44;7.00;;;4.93;;
31043;SDS011;17710;52.520;13.352;2023-02-13T06:55:11;7.45;;;4.55;;
31043;SDS011;17710;52.520;13.352;2023-02-13T06:57:40;6.65;;;4.72;;
31043;SDS011;17710;52.520;13.352;2023-02-13T07:00:07;6.95;;;4.57;;
31043;SDS011;17710;52.520;13.352;2023-02-13T07:02:37;6.47;;;4.50;;
31043;SDS011;17710;52.520;13.352;2023-02-13T07:05:04;14.45;;;7.15;;
31043;SDS011;17710;52.520;13.352;2023-02-13T07:07:31;8.18;;;5.22;;
31043;SDS011;17710;52.520;13.352;2023-02-13T07:09:58;9.10;;;4.93;;
31043;SDS011;17710;52.520;13.352;2023-02-13T07:12:25;8.00;;;5.07;;
31043;SDS011;17710;52.520;13.352;2023-02-13T07:14:53;9.25;;;4.95;;
31043;SDS011;17710;52.520;13.352;2023-02-13T07:17:19;8.45;;;4.97;;
31043;SDS011;17710;52.520;13.352;2023-02-13T07:19:46;7.90;;;4.72;;
31043;SDS011;17710;52.520;13.352;2023-02-13T07:22:12;7.72;;;4.97;;
31043;SDS011;17710;52.520;13.352;2023-02-13T07:24:47;14.00;;;8.75;;
31043;SDS011;17710;52.520;13.352;2023-02-13T07:27:13;12.75;;;7.13;;
31043;SDS011;17710;52.520;13.352;2023-02-13T07:29:40;10.65;;;6.65;;
31043;SDS011;17710;52.520;13.352;2023-02-13T07:32:08;10.48;;;5.15;;
31043;SDS011;17710;52.520;13.352;2023-02-13T07:34:34;8.18;;;5.10;;
31043;SDS011;17710;52.520;13.352;2023-02-13T07:37:01;7.38;;;5.30;;
31043;SDS011;17710;52.520;13.352;2023-02-13T07:39:36;12.82;;;5.70;;
31043;SDS011;17710;52.520;13.352;2023-02-13T07:42:03;8.13;;;4.90;;
31043;SDS011;17710;52.520;13.352;2023-02-13T07:44:30;9.48;;;5.30;;
31043;SDS011;17710;52.520;13.352;2023-02-13T07:46:56;9.50;;;4.95;;
31043;SDS011;17710;52.520;13.352;2023-02-13T07:49:26;10.48;;;5.70;;
31043;SDS011;17710;52.520;13.352;2023-02-13T07:51:54;7.97;;;4.90;;
31043;SDS011;17710;52.520;13.352;2023-02-13T07:54:21;10.98;;;5.30;;
31043;SDS011;17710;52.520;13.352;2023-02-13T07:56:48;11.07;;;4.95;;
31043;SDS011;17710;52.520;13.352;2023-02-13T07:59:14;9.77;;;5.30;;
31043;SDS011;17710;52.520;13.352;2023-02-13T08:01:41;8.15;;;5.07;;
31043;SDS011;17710;52.520;13.352;2023-02-13T08:04:10;9.82;;;5.03;;
31043;SDS011;17710;52.520;13.352;2023-02-13T08:06:38;15.60;;;4.55;;
31043;SDS011;17710;52.520;13.352;2023-02-13T08:09:05;9.55;;;5.88;;
31043;SDS011;17710;52.520;13.352;2023-02-13T08:11:49;10.57;;;6.07;;
31043;SDS011;17710;52.520;13.352;2023-02-13T08:14:21;12.45;;;6.07;;
31043;SDS011;17710;52.520;13.352;2023-02-13T08:16:48;14.30;;;6.53;;
31043;SDS011;17710;52.520;13.352;2023-02-13T08:19:22;9.90;;;5.30;;
31043;SDS011;17710;52.520;13.352;2023-02-13T08:21:59;12.73;;;5.88;;
31043;SDS011;17710;52.520;13.352;2023-02-13T08:24:25;9.05;;;5.75;;
31043;SDS011;17710;52.520;13.352;2023-02-13T08:26:52;11.07;;;6.45;;
31043;SDS011;17710;52.520;13.352;2023-02-13T08:29:18;12.25;;;6.30;;
31043;SDS011;17710;52.520;13.352;2023-02-13T08:31:45;8.63;;;5.43;;
31043;SDS011;17710;52.520;13.352;2023-02-13T08:34:11;12.82;;;6.60;;
31043;SDS011;17710;52.520;13.352;2023-02-13T08:36:38;16.10;;;6.78;;
31043;SDS011;17710;52.520;13.352;2023-02-13T08:39:07;8.60;;;5.38;;
31043;SDS011;17710;52.520;13.352;2023-02-13T08:41:34;13.27;;;5.82;;
31043;SDS011;17710;52.520;13.352;2023-02-13T08:44:01;11.07;;;5.90;;
31043;SDS011;17710;52.520;13.352;2023-02-13T08:46:27;11.32;;;6.13;;
31043;SDS011;17710;52.520;13.352;2023-02-13T08:48:54;9.85;;;6.03;;
31043;SDS011;17710;52.520;13.352;2023-02-13T08:51:20;10.73;;;6.40;;
31043;SDS011;17710;52.520;13.352;2023-02-13T08:53:47;12.02;;;6.18;;
31043;SDS011;17710;52.520;13.352;2023-02-13T08:56:15;10.43;;;5.55;;
31043;SDS011;17710;52.520;13.352;2023-02-13T08:58:42;11.48;;;6.53;;
31043;SDS011;17710;52.520;13.352;2023-02-13T09:01:09;11.55;;;6.15;;
31043;SDS011;17710;52.520;13.352;2023-02-13T09:03:35;11.00;;;5.75;;
31043;SDS011;17710;52.520;13.352;2023-02-13T09:06:02;12.88;;;6.05;;
31043;SDS011;17710;52.520;13.352;2023-02-13T09:08:29;8.88;;;6.28;;
31043;SDS011;17710;52.520;13.352;2023-02-13T09:10:56;11.48;;;6.25;;
31043;SDS011;17710;52.520;13.352;2023-02-13T09:13:26;10.15;;;6.03;;
31043;SDS011;17710;52.520;13.352;2023-02-13T09:15:53;13.10;;;5.93;;
31043;SDS011;17710;52.520;13.352;2023-02-13T09:18:22;9.88;;;6.13;;
31043;SDS011;17710;52.520;13.352;2023-02-13T09:20:48;9.95;;;5.75;;
31043;SDS011;17710;52.520;13.352;2023-02-13T09:23:14;10.45;;;6.20;;
31043;SDS011;17710;52.520;13.352;2023-02-13T09:25:41;9.40;;;6.05;;
31043;SDS011;17710;52.520;13.352;2023-02-13T09:28:07;10.95;;;6.38;;
31043;SDS011;17710;52.520;13.352;2023-02-13T09:30:35;14.52;;;6.97;;
31043;SDS011;17710;52.520;13.352;2023-02-13T09:33:02;13.48;;;8.07;;
31043;SDS011;17710;52.520;13.352;2023-02-13T09:35:28;13.88;;;7.90;;
31043;SDS011;17710;52.520;13.352;2023-02-13T09:37:55;17.15;;;7.25;;
31043;SDS011;17710;52.520;13.352;2023-02-13T09:40:24;12.25;;;7.22;;
31043;SDS011;17710;52.520;13.352;2023-02-13T09:42:54;13.30;;;7.75;;
31043;SDS011;17710;52.520;13.352;2023-02-13T09:45:29;14.60;;;7.82;;
31043;SDS011;17710;52.520;13.352;2023-02-13T09:47:56;18.00;;;7.97;;
31043;SDS011;17710;52.520;13.352;2023-02-13T09:50:24;18.83;;;8.65;;
31043;SDS011;17710;52.520;13.352;2023-02-13T09:52:54;14.32;;;8.00;;
31043;SDS011;17710;52.520;13.352;2023-02-13T09:55:25;16.88;;;9.50;;
31043;SDS011;17710;52.520;13.352;2023-02-13T09:57:56;17.05;;;8.88;;
31043;SDS011;17710;52.520;13.352;2023-02-13T10:00:28;15.32;;;8.77;;
31043;SDS011;17710;52.520;13.352;2023-02-13T10:05:51;17.00;;;9.27;;
31043;SDS011;17710;52.520;13.352;2023-02-13T10:08:26;17.50;;;9.20;;
31043;SDS011;17710;52.520;13.352;2023-02-13T10:11:03;18.30;;;10.05;;
31043;SDS011;17710;52.520;13.352;2023-02-13T10:13:43;17.80;;;9.98;;
31043;SDS011;17710;52.520;13.352;2023-02-13T10:16:23;19.45;;;10.05;;
31043;SDS011;17710;52.520;13.352;2023-02-13T10:18:56;18.30;;;9.55;;
31043;SDS011;17710;52.520;13.352;2023-02-13T10:21:27;15.50;;;9.13;;
31043;SDS011;17710;52.520;13.352;2023-02-13T10:23:58;16.42;;;9.10;;
31043;SDS011;17710;52.520;13.352;2023-02-13T10:26:30;18.40;;;9.70;;
31043;SDS011;17710;52.520;13.352;2023-02-13T10:29:08;17.08;;;10.15;;
31043;SDS011;17710;52.520;13.352;2023-02-13T10:32:01;17.10;;;8.77;;
31043;SDS011;17710;52.520;13.352;2023-02-13T10:34:35;16.95;;;9.80;;
31043;SDS011;17710;52.520;13.352;2023-02-13T10:37:10;18.15;;;9.13;;
31043;SDS011;17710;52.520;13.352;2023-02-13T10:39:39;17.33;;;8.45;;
31043;SDS011;17710;52.520;13.352;2023-02-13T10:42:11;12.13;;;7.80;;
31043;SDS011;17710;52.520;13.352;2023-02-13T10:44:49;15.10;;;8.13;;
31043;SDS011;17710;52.520;13.352;2023-02-13T10:47:34;14.02;;;8.43;;
31043;SDS011;17710;52.520;13.352;2023-02-13T10:50:15;14.93;;;8.50;;
31043;SDS011;17710;52.520;13.352;2023-02-13T10:52:49;14.30;;;8.40;;
31043;SDS011;17710;52.520;13.352;2023-02-13T10:55:30;15.68;;;8.40;;
31043;SDS011;17710;52.520;13.352;2023-02-13T10:58:17;13.55;;;8.05;;
31043;SDS011;17710;52.520;13.352;2023-02-13T11:00:46;15.77;;;8.70;;
31043;SDS011;17710;52.520;13.352;2023-02-13T11:03:19;13.68;;;8.48;;
31043;SDS011;17710;52.520;13.352;2023-02-13T11:05:48;14.77;;;8.77;;
31043;SDS011;17710;52.520;13.352;2023-02-13T11:08:16;15.10;;;9.35;;
31043;SDS011;17710;52.520;13.352;2023-02-13T11:10:46;18.08;;;9.40;;
31043;SDS011;17710;52.520;13.352;2023-02-13T11:13:16;14.50;;;8.68;;
31043;SDS011;17710;52.520;13.352;2023-02-13T11:15:57;13.50;;;8.82;;
31043;SDS011;17710;52.520;13.352;2023-02-13T11:18:27;16.10;;;10.00;;
31043;SDS011;17710;52.520;13.352;2023-02-13T11:21:00;17.38;;;10.00;;
31043;SDS011;17710;52.520;13.352;2023-02-13T11:23:33;16.55;;;10.27;;
31043;SDS011;17710;52.520;13.352;2023-02-13T11:26:04;17.65;;;9.88;;
31043;SDS011;17710;52.520;13.352;2023-02-13T11:28:35;21.75;;;11.88;;
31043;SDS011;17710;52.520;13.352;2023-02-13T11:31:14;16.08;;;10.38;;
31043;SDS011;17710;52.520;13.352;2023-02-13T11:33:46;17.48;;;11.32;;
31043;SDS011;17710;52.520;13.352;2023-02-13T11:36:15;18.92;;;11.25;;
31043;SDS011;17710;52.520;13.352;2023-02-13T11:38:42;19.50;;;11.77;;
31043;SDS011;17710;52.520;13.352;2023-02-13T11:41:09;20.33;;;11.30;;
31043;SDS011;17710;52.520;13.352;2023-02-13T11:43:43;18.25;;;11.77;;
31043;SDS011;17710;52.520;13.352;2023-02-13T11:46:15;17.77;;;11.13;;
31043;SDS011;17710;52.520;13.352;2023-02-13T11:48:54;26.00;;;12.85;;
31043;SDS011;17710;52.520;13.352;2023-02-13T11:51:38;18.70;;;11.48;;
31043;SDS011;17710;52.520;13.352;2023-02-13T11:54:11;22.17;;;12.20;;
31043;SDS011;17710;52.520;13.352;2023-02-13T11:56:50;19.15;;;11.13;;
31043;SDS011;17710;52.520;13.352;2023-02-13T11:59:20;23.25;;;13.15;;
31043;SDS011;17710;52.520;13.352;2023-02-13T12:01:48;22.38;;;13.07;;
31043;SDS011;17710;52.520;13.352;2023-02-13T12:04:27;19.00;;;12.07;;
31043;SDS011;17710;52.520;13.352;2023-02-13T12:06:58;20.40;;;12.30;;
31043;SDS011;17710;52.520;13.352;2023-02-13T12:09:27;19.75;;;11.52;;
31043;SDS011;17710;52.520;13.352;2023-02-13T12:11:56;19.13;;;12.38;;
31043;SDS011;17710;52.520;13.352;2023-02-13T12:14:28;20.80;;;11.82;;
31043;SDS011;17710;52.520;13.352;2023-02-13T12:16:59;22.70;;;12.52;;
31043;SDS011;17710;52.520;13.352;2023-02-13T12:19:32;22.23;;;13.05;;
31043;SDS011;17710;52.520;13.352;2023-02-13T12:22:08;22.08;;;12.35;;
31043;SDS011;17710;52.520;13.352;2023-02-13T12:24:52;23.42;;;13.13;;
31043;SDS011;17710;52.520;13.352;2023-02-13T12:27:37;20.65;;;12.75;;
31043;SDS011;17710;52.520;13.352;2023-02-13T12:30:16;21.02;;;13.57;;
31043;SDS011;17710;52.520;13.352;2023-02-13T12:33:04;20.02;;;12.45;;
31043;SDS011;17710;52.520;13.352;2023-02-13T12:35:46;24.73;;;12.95;;
31043;SDS011;17710;52.520;13.352;2023-02-13T12:38:26;23.75;;;13.85;;
31043;SDS011;17710;52.520;13.352;2023-02-13T12:41:17;23.38;;;13.52;;
31043;SDS011;17710;52.520;13.352;2023-02-13T12:43:57;25.92;;;15.23;;
31043;SDS011;17710;52.520;13.352;2023-02-13T12:46:41;20.77;;;13.00;;
31043;SDS011;17710;52.520;13.352;2023-02-13T12:49:22;22.90;;;12.75;;
31043;SDS011;17710;52.520;13.352;2023-02-13T12:52:04;23.00;;;13.35;;
31043;SDS011;17710;52.520;13.352;2023-02-13T12:54:47;24.92;;;12.48;;
31043;SDS011;17710;52.520;13.352;2023-02-13T12:57:35;21.10;;;12.38;;
31043;SDS011;17710;52.520;13.352;2023-02-13T13:00:12;20.77;;;11.93;;
31043;SDS011;17710;52.520;13.352;2023-02-13T13:02:59;18.48;;;11.88;;
31043;SDS011;17710;52.520;13.352;2023-02-13T13:05:49;21.30;;;12.32;;
31043;SDS011;17710;52.520;13.352;2023-02-13T13:08:30;21.45;;;11.88;;
31043;SDS011;17710;52.520;13.352;2023-02-13T13:11:14;21.88;;;12.57;;
31043;SDS011;17710;52.520;13.352;2023-02-13T13:13:54;24.13;;;12.45;;
31043;SDS011;17710;52.520;13.352;2023-02-13T13:16:32;20.83;;;12.63;;
31043;SDS011;17710;52.520;13.352;2023-02-13T13:19:11;20.67;;;12.50;;
31043;SDS011;17710;52.520;13.352;2023-02-13T13:21:47;21.27;;;11.48;;
31043;SDS011;17710;52.520;13.352;2023-02-13T13:24:21;20.63;;;12.63;;
31043;SDS011;17710;52.520;13.352;2023-02-13T13:26:57;24.67;;;13.18;;
31043;SDS011;17710;52.520;13.352;2023-02-13T13:29:28;25.00;;;13.48;;
31043;SDS011;17710;52.520;13.352;2023-02-13T13:32:02;23.35;;;13.00;;
31043;SDS011;17710;52.520;13.352;2023-02-13T13:34:33;22.80;;;11.63;;
31043;SDS011;17710;52.520;13.352;2023-02-13T13:37:03;22.00;;;12.77;;
31043;SDS011;17710;52.520;13.352;2023-02-13T13:39:39;20.98;;;12.80;;
31043;SDS011;17710;52.520;13.352;2023-02-13T13:42:15;22.30;;;12.68;;
31043;SDS011;17710;52.520;13.352;2023-02-13T13:44:49;24.03;;;13.83;;
31043;SDS011;17710;52.520;13.352;2023-02-13T13:47:46;23.05;;;13.77;;
31043;SDS011;17710;52.520;13.352;2023-02-13T13:50:18;24.67;;;13.40;;
31043;SDS011;17710;52.520;13.352;2023-02-13T13:53:03;41.47;;;22.10;;
31043;SDS011;17710;52.520;13.352;2023-02-13T13:58:38;21.50;;;13.20;;
31043;SDS011;17710;52.520;13.352;2023-02-13T14:01:17;23.65;;;12.98;;
31043;SDS011;17710;52.520;13.352;2023-02-13T14:03:49;24.30;;;13.40;;
31043;SDS011;17710;52.520;13.352;2023-02-13T14:06:16;22.08;;;13.15;;
31043;SDS011;17710;52.520;13.352;2023-02-13T14:11:52;27.98;;;13.80;;
31043;SDS011;17710;52.520;13.352;2023-02-13T14:17:12;25.15;;;13.40;;
31043;SDS011;17710;52.520;13.352;2023-02-13T14:19:41;25.60;;;15.70;;
31043;SDS011;17710;52.520;13.352;2023-02-13T14:25:00;25.33;;;13.55;;
31043;SDS011;17710;52.520;13.352;2023-02-13T14:27:31;23.48;;;13.57;;
31043;SDS011;17710;52.520;13.352;2023-02-13T14:30:03;24.73;;;13.65;;
31043;SDS011;17710;52.520;13.352;2023-02-13T14:32:31;21.42;;;12.32;;
31043;SDS011;17710;52.520;13.352;2023-02-13T14:35:01;20.60;;;12.38;;
31043;SDS011;17710;52.520;13.352;2023-02-13T14:37:32;21.40;;;12.93;;
31043;SDS011;17710;52.520;13.352;2023-02-13T14:43:18;20.90;;;11.93;;
31043;SDS011;17710;52.520;13.352;2023-02-13T14:45:52;24.38;;;13.13;;
31043;SDS011;17710;52.520;13.352;2023-02-13T14:48:20;25.20;;;13.68;;
31043;SDS011;17710;52.520;13.352;2023-02-13T14:50:51;22.50;;;12.48;;
31043;SDS011;17710;52.520;13.352;2023-02-13T14:53:21;23.25;;;13.88;;
31043;SDS011;17710;52.520;13.352;2023-02-13T14:55:54;23.88;;;13.57;;
31043;SDS011;17710;52.520;13.352;2023-02-13T14:58:24;24.52;;;11.95;;
31043;SDS011;17710;52.520;13.352;2023-02-13T15:00:58;21.63;;;12.35;;
31043;SDS011;17710;52.520;13.352;2023-02-13T15:03:29;24.83;;;13.18;;
31043;SDS011;17710;52.520;13.352;2023-02-13T15:06:02;23.02;;;13.18;;
31043;SDS011;17710;52.520;13.352;2023-02-13T15:08:33;26.92;;;13.68;;